Terminal Aerodrome Forecast
Issued by NWS

Current Version | Previous Version | Graphics & Text | Print | Product List | Glossary On
Versions: 1 2 3 4 5 6 7 8 9 10 11 12 13 14 15 16
000
FTUS41 KPBZ 232159 AAA
TAFMGW
TAF AMD
KMGW 232159Z 2322/2418 17006KT P6SM -SHRA VCTS BKN040CB
     FM232300 35003KT P6SM BKN100
     FM241000 00000KT 4SM BR SKC
     FM241300 26004KT P6SM SKC=

USA.gov is the U.S. government's official web portal to all federal, state and local government web resources and services.